sensor_id;sensor_type;location;lat;lon;timestamp;pressure;altitude;pressure_sealevel;temperature;humidity
56241;BME280;42155;53.096;23.226;2023-12-22T00:01:55;95890.19;;;5.07;88.57
56241;BME280;42155;53.096;23.226;2023-12-22T00:03:55;95894.50;;;5.15;88.49
56241;BME280;42155;53.096;23.226;2023-12-22T00:05:55;95896.94;;;5.17;88.40
56241;BME280;42155;53.096;23.226;2023-12-22T00:07:56;95872.19;;;5.04;88.26
56241;BME280;42155;53.096;23.226;2023-12-22T00:09:56;95899.97;;;5.14;88.76
56241;BME280;42155;53.096;23.226;2023-12-22T00:11:57;95893.06;;;5.13;88.18
56241;BME280;42155;53.096;23.226;2023-12-22T00:13:57;95892.44;;;5.10;88.79
56241;BME280;42155;53.096;23.226;2023-12-22T00:15:57;95898.06;;;5.07;88.43
56241;BME280;42155;53.096;23.226;2023-12-22T00:17:58;95896.09;;;5.09;88.60
56241;BME280;42155;53.096;23.226;2023-12-22T00:19:58;95896.94;;;5.17;88.44
56241;BME280;42155;53.096;23.226;2023-12-22T00:21:59;95907.44;;;5.17;88.44
56241;BME280;42155;53.096;23.226;2023-12-22T00:23:59;95920.22;;;5.20;88.73
56241;BME280;42155;53.096;23.226;2023-12-22T00:25:59;95922.47;;;5.23;88.05
56241;BME280;42155;53.096;23.226;2023-12-22T00:28:00;95915.09;;;5.11;88.35
56241;BME280;42155;53.096;23.226;2023-12-22T00:30:00;95923.72;;;5.05;88.22
56241;BME280;42155;53.096;23.226;2023-12-22T00:32:01;95950.38;;;5.24;88.14
56241;BME280;42155;53.096;23.226;2023-12-22T00:34:01;95968.97;;;5.22;88.43
56241;BME280;42155;53.096;23.226;2023-12-22T00:36:02;95975.78;;;5.17;88.17
56241;BME280;42155;53.096;23.226;2023-12-22T00:38:02;95951.38;;;5.01;88.36
56241;BME280;42155;53.096;23.226;2023-12-22T00:40:03;95986.28;;;5.17;88.24
56241;BME280;42155;53.096;23.226;2023-12-22T00:42:03;95983.84;;;5.15;87.95
56241;BME280;42155;53.096;23.226;2023-12-22T00:44:04;95998.81;;;5.15;88.00
56241;BME280;42155;53.096;23.226;2023-12-22T00:46:05;95977.28;;;5.04;87.90
56241;BME280;42155;53.096;23.226;2023-12-22T00:48:06;95948.00;;;4.86;88.11
56241;BME280;42155;53.096;23.226;2023-12-22T00:50:07;95965.03;;;4.90;87.77
56241;BME280;42155;53.096;23.226;2023-12-22T00:52:07;95970.78;;;5.00;88.03
56241;BME280;42155;53.096;23.226;2023-12-22T00:54:08;95966.34;;;5.01;87.94
56241;BME280;42155;53.096;23.226;2023-12-22T00:56:08;95984.06;;;5.14;87.92
56241;BME280;42155;53.096;23.226;2023-12-22T00:58:09;95959.13;;;4.88;87.66
56241;BME280;42155;53.096;23.226;2023-12-22T01:00:10;95967.09;;;4.95;87.44
56241;BME280;42155;53.096;23.226;2023-12-22T01:02:10;95995.59;;;4.98;87.53
56241;BME280;42155;53.096;23.226;2023-12-22T01:04:11;95982.56;;;4.90;87.53
56241;BME280;42155;53.096;23.226;2023-12-22T01:06:11;95995.03;;;5.02;87.51
56241;BME280;42155;53.096;23.226;2023-12-22T01:08:11;95992.81;;;4.99;86.88
56241;BME280;42155;53.096;23.226;2023-12-22T01:10:12;95983.72;;;5.02;87.13
56241;BME280;42155;53.096;23.226;2023-12-22T01:12:19;96000.00;;;5.12;87.15
56241;BME280;42155;53.096;23.226;2023-12-22T01:14:19;95994.03;;;5.03;86.76
56241;BME280;42155;53.096;23.226;2023-12-22T01:16:20;96005.44;;;5.10;86.50
56241;BME280;42155;53.096;23.226;2023-12-22T01:18:20;96010.13;;;5.15;86.75
56241;BME280;42155;53.096;23.226;2023-12-22T01:20:20;95984.63;;;5.09;86.58
56241;BME280;42155;53.096;23.226;2023-12-22T01:22:21;95998.81;;;5.15;86.21
56241;BME280;42155;53.096;23.226;2023-12-22T01:24:21;95999.19;;;5.11;86.35
56241;BME280;42155;53.096;23.226;2023-12-22T01:26:21;96010.91;;;5.09;86.57
56241;BME280;42155;53.096;23.226;2023-12-22T01:28:22;96007.47;;;5.08;86.42
56241;BME280;42155;53.096;23.226;2023-12-22T01:30:22;96008.25;;;5.09;85.98
56241;BME280;42155;53.096;23.226;2023-12-22T01:32:22;95997.50;;;5.04;85.90
56241;BME280;42155;53.096;23.226;2023-12-22T01:34:23;95996.41;;;4.98;85.90
56241;BME280;42155;53.096;23.226;2023-12-22T01:36:24;96012.19;;;4.98;86.24
56241;BME280;42155;53.096;23.226;2023-12-22T01:38:24;96009.28;;;4.93;86.24
56241;BME280;42155;53.096;23.226;2023-12-22T01:40:24;96003.25;;;4.78;86.35
56241;BME280;42155;53.096;23.226;2023-12-22T01:42:25;95976.88;;;4.50;86.07
56241;BME280;42155;53.096;23.226;2023-12-22T01:44:25;96032.41;;;4.83;86.37
56241;BME280;42155;53.096;23.226;2023-12-22T01:46:25;96026.41;;;4.89;86.33
56241;BME280;42155;53.096;23.226;2023-12-22T01:48:26;96029.84;;;4.90;85.66
56241;BME280;42155;53.096;23.226;2023-12-22T01:50:28;96025.00;;;4.87;85.73
56241;BME280;42155;53.096;23.226;2023-12-22T01:52:29;96027.72;;;4.78;84.97
56241;BME280;42155;53.096;23.226;2023-12-22T01:54:30;96039.03;;;4.79;85.61
56241;BME280;42155;53.096;23.226;2023-12-22T01:56:30;96031.50;;;4.76;84.98
56241;BME280;42155;53.096;23.226;2023-12-22T01:58:33;96004.47;;;4.60;85.24
56241;BME280;42155;53.096;23.226;2023-12-22T02:00:35;96008.09;;;4.59;84.81
56241;BME280;42155;53.096;23.226;2023-12-22T02:02:35;96031.78;;;4.66;84.94
56241;BME280;42155;53.096;23.226;2023-12-22T02:04:36;96027.28;;;4.60;84.78
56241;BME280;42155;53.096;23.226;2023-12-22T02:06:37;96024.13;;;4.50;84.51
56241;BME280;42155;53.096;23.226;2023-12-22T02:08:37;96018.41;;;4.46;85.04
56241;BME280;42155;53.096;23.226;2023-12-22T02:10:38;96034.38;;;4.45;84.47
56241;BME280;42155;53.096;23.226;2023-12-22T02:12:39;96037.53;;;4.40;84.64
56241;BME280;42155;53.096;23.226;2023-12-22T02:14:39;96034.63;;;4.35;84.89
56241;BME280;42155;53.096;23.226;2023-12-22T02:19:09;96031.75;;;4.30;84.52
56241;BME280;42155;53.096;23.226;2023-12-22T02:21:11;96033.72;;;4.28;84.31
56241;BME280;42155;53.096;23.226;2023-12-22T02:23:11;96034.44;;;4.22;84.26
56241;BME280;42155;53.096;23.226;2023-12-22T02:25:11;96012.81;;;4.05;84.77
56241;BME280;42155;53.096;23.226;2023-12-22T02:29:31;96023.50;;;4.18;84.29
56241;BME280;42155;53.096;23.226;2023-12-22T02:33:33;96001.03;;;3.86;84.58
56241;BME280;42155;53.096;23.226;2023-12-22T02:35:37;96006.44;;;3.85;84.73
56241;BME280;42155;53.096;23.226;2023-12-22T02:37:39;96000.75;;;3.81;84.57
56241;BME280;42155;53.096;23.226;2023-12-22T02:39:40;96019.31;;;3.94;84.36
56241;BME280;42155;53.096;23.226;2023-12-22T02:41:41;96015.41;;;3.90;84.70
56241;BME280;42155;53.096;23.226;2023-12-22T02:43:42;96018.66;;;3.92;84.54
56241;BME280;42155;53.096;23.226;2023-12-22T02:45:42;96006.44;;;3.85;84.25
56241;BME280;42155;53.096;23.226;2023-12-22T02:47:43;96016.69;;;3.94;84.38
56241;BME280;42155;53.096;23.226;2023-12-22T02:49:44;96006.81;;;3.96;84.01
56241;BME280;42155;53.096;23.226;2023-12-22T02:51:44;96005.81;;;3.97;84.26
56241;BME280;42155;53.096;23.226;2023-12-22T02:53:45;95996.59;;;4.01;84.21
56241;BME280;42155;53.096;23.226;2023-12-22T02:55:45;96005.75;;;4.05;84.54
56241;BME280;42155;53.096;23.226;2023-12-22T02:57:46;95996.25;;;4.04;83.66
56241;BME280;42155;53.096;23.226;2023-12-22T02:59:46;95997.88;;;4.05;84.22
56241;BME280;42155;53.096;23.226;2023-12-22T03:01:46;95998.34;;;4.09;84.08
56241;BME280;42155;53.096;23.226;2023-12-22T03:03:47;96006.66;;;4.13;83.98
56241;BME280;42155;53.096;23.226;2023-12-22T03:05:47;96005.03;;;4.12;83.30
56241;BME280;42155;53.096;23.226;2023-12-22T03:07:47;96013.81;;;4.19;83.04
56241;BME280;42155;53.096;23.226;2023-12-22T03:09:48;96001.03;;;4.16;83.07
56241;BME280;42155;53.096;23.226;2023-12-22T03:11:49;95971.56;;;3.99;82.94
56241;BME280;42155;53.096;23.226;2023-12-22T03:13:49;96012.44;;;4.23;83.25
56241;BME280;42155;53.096;23.226;2023-12-22T03:15:49;95996.16;;;4.13;82.97
56241;BME280;42155;53.096;23.226;2023-12-22T03:17:50;96021.13;;;4.23;82.89
56241;BME280;42155;53.096;23.226;2023-12-22T03:19:50;96009.81;;;4.23;82.94
56241;BME280;42155;53.096;23.226;2023-12-22T03:21:51;96011.84;;;4.21;82.83
56241;BME280;42155;53.096;23.226;2023-12-22T03:23:51;96002.97;;;4.22;82.47
56241;BME280;42155;53.096;23.226;2023-12-22T03:25:52;96009.56;;;4.18;82.55
56241;BME280;42155;53.096;23.226;2023-12-22T03:27:52;95982.25;;;4.12;82.39
56241;BME280;42155;53.096;23.226;2023-12-22T03:29:52;96011.09;;;4.27;82.56
56241;BME280;42155;53.096;23.226;2023-12-22T03:31:53;96002.31;;;4.20;82.26
56241;BME280;42155;53.096;23.226;2023-12-22T03:33:53;96010.44;;;4.25;82.14
56241;BME280;42155;53.096;23.226;2023-12-22T03:35:53;95993.28;;;4.22;81.98
56241;BME280;42155;53.096;23.226;2023-12-22T03:37:54;95994.53;;;4.26;82.15
56241;BME280;42155;53.096;23.226;2023-12-22T03:39:55;96000.25;;;4.30;82.33
56241;BME280;42155;53.096;23.226;2023-12-22T03:41:55;95988.47;;;4.26;82.46
56241;BME280;42155;53.096;23.226;2023-12-22T03:43:56;95967.31;;;4.13;82.34
56241;BME280;42155;53.096;23.226;2023-12-22T03:45:57;95977.53;;;4.22;82.42
56241;BME280;42155;53.096;23.226;2023-12-22T03:47:57;95976.19;;;4.12;82.12
56241;BME280;42155;53.096;23.226;2023-12-22T03:49:57;95993.16;;;4.16;82.13
56241;BME280;42155;53.096;23.226;2023-12-22T03:51:58;95997.72;;;4.22;82.52
56241;BME280;42155;53.096;23.226;2023-12-22T03:53:58;95969.09;;;3.97;82.43
56241;BME280;42155;53.096;23.226;2023-12-22T03:55:58;95974.25;;;4.05;81.78
56241;BME280;42155;53.096;23.226;2023-12-22T03:57:59;95999.69;;;4.20;82.02
56241;BME280;42155;53.096;23.226;2023-12-22T03:59:59;95987.84;;;4.24;82.38
56241;BME280;42155;53.096;23.226;2023-12-22T04:02:00;96007.47;;;4.28;81.85
56241;BME280;42155;53.096;23.226;2023-12-22T04:04:00;95983.94;;;4.20;81.68
56241;BME280;42155;53.096;23.226;2023-12-22T04:06:03;95989.47;;;4.25;81.44
56241;BME280;42155;53.096;23.226;2023-12-22T04:08:05;95990.09;;;4.27;81.70
56241;BME280;42155;53.096;23.226;2023-12-22T04:10:06;95987.91;;;4.16;81.74
56241;BME280;42155;53.096;23.226;2023-12-22T04:12:06;95992.81;;;4.19;81.54
56241;BME280;42155;53.096;23.226;2023-12-22T04:14:07;95982.97;;;4.21;81.96
56241;BME280;42155;53.096;23.226;2023-12-22T04:16:07;95987.75;;;4.32;81.38
56241;BME280;42155;53.096;23.226;2023-12-22T04:18:07;95963.34;;;4.17;81.26
56241;BME280;42155;53.096;23.226;2023-12-22T04:20:08;95977.25;;;4.32;81.16
56241;BME280;42155;53.096;23.226;2023-12-22T04:22:08;95958.69;;;4.19;81.02
56241;BME280;42155;53.096;23.226;2023-12-22T04:24:09;95989.38;;;4.33;81.23
56241;BME280;42155;53.096;23.226;2023-12-22T04:26:09;95972.28;;;4.22;80.75
56241;BME280;42155;53.096;23.226;2023-12-22T04:28:09;95975.16;;;4.27;80.76
56241;BME280;42155;53.096;23.226;2023-12-22T04:30:10;95977.25;;;4.32;80.76
56241;BME280;42155;53.096;23.226;2023-12-22T04:32:11;95986.59;;;4.34;80.12
56241;BME280;42155;53.096;23.226;2023-12-22T04:34:13;95985.94;;;4.32;80.47
56241;BME280;42155;53.096;23.226;2023-12-22T04:36:14;95972.34;;;4.29;80.29
56241;BME280;42155;53.096;23.226;2023-12-22T04:38:14;95972.34;;;4.29;80.43
56241;BME280;42155;53.096;23.226;2023-12-22T04:40:15;95980.69;;;4.32;80.20
56241;BME280;42155;53.096;23.226;2023-12-22T04:42:15;95963.94;;;4.19;80.15
56241;BME280;42155;53.096;23.226;2023-12-22T04:44:15;95980.88;;;4.31;79.97
56241;BME280;42155;53.096;23.226;2023-12-22T04:46:16;95949.94;;;4.12;80.40
56241;BME280;42155;53.096;23.226;2023-12-22T04:48:16;95981.69;;;4.31;80.03
56241;BME280;42155;53.096;23.226;2023-12-22T04:50:17;95924.16;;;4.00;79.97
56241;BME280;42155;53.096;23.226;2023-12-22T04:52:17;95967.50;;;4.26;79.53
56241;BME280;42155;53.096;23.226;2023-12-22T04:54:17;95976.09;;;4.34;79.92
56241;BME280;42155;53.096;23.226;2023-12-22T04:56:18;95930.41;;;3.99;79.22
56241;BME280;42155;53.096;23.226;2023-12-22T04:58:18;95979.88;;;4.32;79.24
56241;BME280;42155;53.096;23.226;2023-12-22T05:00:18;95981.13;;;4.36;79.42
56241;BME280;42155;53.096;23.226;2023-12-22T05:02:19;95982.16;;;4.35;79.11
56241;BME280;42155;53.096;23.226;2023-12-22T05:04:19;95971.38;;;4.30;79.52
56241;BME280;42155;53.096;23.226;2023-12-22T05:06:20;95972.63;;;4.34;79.55
56241;BME280;42155;53.096;23.226;2023-12-22T05:08:20;95971.09;;;4.25;78.95
56241;BME280;42155;53.096;23.226;2023-12-22T05:10:20;95983.75;;;4.36;78.70
56241;BME280;42155;53.096;23.226;2023-12-22T05:12:21;95969.56;;;4.30;79.06
56241;BME280;42155;53.096;23.226;2023-12-22T05:14:21;95976.25;;;4.33;78.97
56241;BME280;42155;53.096;23.226;2023-12-22T05:16:21;95973.16;;;4.29;78.84
56241;BME280;42155;53.096;23.226;2023-12-22T05:18:22;95969.56;;;4.30;78.86
56241;BME280;42155;53.096;23.226;2023-12-22T05:20:22;95948.56;;;4.16;78.55
56241;BME280;42155;53.096;23.226;2023-12-22T05:22:22;95984.84;;;4.27;78.71
56241;BME280;42155;53.096;23.226;2023-12-22T05:24:23;95971.81;;;4.33;78.92
56241;BME280;42155;53.096;23.226;2023-12-22T05:26:23;95955.34;;;4.25;78.66
56241;BME280;42155;53.096;23.226;2023-12-22T05:28:24;95926.78;;;4.00;78.42
56241;BME280;42155;53.096;23.226;2023-12-22T05:30:24;95984.22;;;4.40;78.36
56241;BME280;42155;53.096;23.226;2023-12-22T05:32:24;95965.84;;;4.25;78.81
56241;BME280;42155;53.096;23.226;2023-12-22T05:34:25;95990.63;;;4.37;78.70
56241;BME280;42155;53.096;23.226;2023-12-22T05:36:25;95986.84;;;4.40;78.64
56241;BME280;42155;53.096;23.226;2023-12-22T05:38:26;95971.75;;;4.27;78.43
56241;BME280;42155;53.096;23.226;2023-12-22T05:40:26;95984.94;;;4.33;78.50
56241;BME280;42155;53.096;23.226;2023-12-22T05:42:26;96002.22;;;4.28;78.69
56241;BME280;42155;53.096;23.226;2023-12-22T05:44:27;95984.59;;;4.22;78.81
56241;BME280;42155;53.096;23.226;2023-12-22T05:46:28;95939.97;;;3.92;79.01
56241;BME280;42155;53.096;23.226;2023-12-22T05:48:29;95970.56;;;4.15;79.23
56241;BME280;42155;53.096;23.226;2023-12-22T05:50:29;95977.97;;;4.26;79.51
56241;BME280;42155;53.096;23.226;2023-12-22T05:52:30;95990.09;;;4.27;79.63
56241;BME280;42155;53.096;23.226;2023-12-22T05:54:30;95997.31;;;4.25;79.56
56241;BME280;42155;53.096;23.226;2023-12-22T05:56:30;96000.25;;;4.30;79.22
56241;BME280;42155;53.096;23.226;2023-12-22T05:58:31;95996.63;;;4.31;79.34
56241;BME280;42155;53.096;23.226;2023-12-22T06:00:32;96009.91;;;4.29;78.92
56241;BME280;42155;53.096;23.226;2023-12-22T06:02:33;95997.31;;;4.25;79.06
56241;BME280;42155;53.096;23.226;2023-12-22T06:04:33;95995.16;;;4.28;79.40
56241;BME280;42155;53.096;23.226;2023-12-22T06:06:34;95985.03;;;4.11;78.98
56241;BME280;42155;53.096;23.226;2023-12-22T06:08:37;96009.47;;;4.26;78.96
56241;BME280;42155;53.096;23.226;2023-12-22T06:10:37;96016.34;;;4.27;78.70
56241;BME280;42155;53.096;23.226;2023-12-22T06:12:38;95995.63;;;4.17;78.70
56241;BME280;42155;53.096;23.226;2023-12-22T06:14:38;95967.84;;;3.93;78.42
56241;BME280;42155;53.096;23.226;2023-12-22T06:16:39;96009.38;;;4.19;78.75
56241;BME280;42155;53.096;23.226;2023-12-22T06:18:40;96031.72;;;4.15;78.64
56241;BME280;42155;53.096;23.226;2023-12-22T06:20:41;95992.63;;;4.05;78.75
56241;BME280;42155;53.096;23.226;2023-12-22T06:22:41;95996.59;;;4.01;79.14
56241;BME280;42155;53.096;23.226;2023-12-22T06:24:41;95985.47;;;3.99;78.99
56241;BME280;42155;53.096;23.226;2023-12-22T06:26:42;95989.66;;;3.94;78.75
56241;BME280;42155;53.096;23.226;2023-12-22T06:28:42;96023.75;;;4.08;79.50
56241;BME280;42155;53.096;23.226;2023-12-22T06:30:43;95991.34;;;3.87;79.25
56241;BME280;42155;53.096;23.226;2023-12-22T06:32:43;96021.47;;;4.05;79.32
56241;BME280;42155;53.096;23.226;2023-12-22T06:34:44;96037.16;;;4.14;79.56
56241;BME280;42155;53.096;23.226;2023-12-22T06:36:44;95967.25;;;3.68;79.22
56241;BME280;42155;53.096;23.226;2023-12-22T06:38:45;96031.16;;;4.05;79.40
56241;BME280;42155;53.096;23.226;2023-12-22T06:40:46;96015.06;;;3.93;79.74
56241;BME280;42155;53.096;23.226;2023-12-22T06:42:46;96039.50;;;4.08;79.21
56241;BME280;42155;53.096;23.226;2023-12-22T06:44:47;95986.88;;;3.72;79.10
56241;BME280;42155;53.096;23.226;2023-12-22T06:46:47;96050.34;;;4.05;79.17
56241;BME280;42155;53.096;23.226;2023-12-22T06:48:48;96050.34;;;4.05;79.86
56241;BME280;42155;53.096;23.226;2023-12-22T06:50:49;96054.69;;;3.98;79.96
56241;BME280;42155;53.096;23.226;2023-12-22T06:52:49;96062.56;;;3.98;79.90
56241;BME280;42155;53.096;23.226;2023-12-22T06:54:49;96059.81;;;3.92;79.99
56241;BME280;42155;53.096;23.226;2023-12-22T06:56:50;96061.09;;;3.96;79.79
56241;BME280;42155;53.096;23.226;2023-12-22T06:58:52;96080.63;;;3.93;79.87
56241;BME280;42155;53.096;23.226;2023-12-22T07:00:53;96060.50;;;3.71;80.10
56241;BME280;42155;53.096;23.226;2023-12-22T07:02:53;96089.91;;;3.81;80.52
56241;BME280;42155;53.096;23.226;2023-12-22T07:07:10;96088.06;;;3.67;80.32
56241;BME280;42155;53.096;23.226;2023-12-22T07:11:11;96092.06;;;3.54;80.48
56241;BME280;42155;53.096;23.226;2023-12-22T07:13:11;96091.72;;;3.57;81.19
56241;BME280;42155;53.096;23.226;2023-12-22T07:15:12;96125.47;;;3.61;80.78
56241;BME280;42155;53.096;23.226;2023-12-22T07:17:12;96100.41;;;3.58;81.04
56241;BME280;42155;53.096;23.226;2023-12-22T07:19:13;96092.94;;;3.47;80.61
56241;BME280;42155;53.096;23.226;2023-12-22T07:21:16;96097.97;;;3.56;80.85
56241;BME280;42155;53.096;23.226;2023-12-22T07:23:17;96088.00;;;3.52;80.63
56241;BME280;42155;53.096;23.226;2023-12-22T07:25:18;96111.22;;;3.55;81.22
56241;BME280;42155;53.096;23.226;2023-12-22T07:27:20;96101.78;;;3.46;81.12
56241;BME280;42155;53.096;23.226;2023-12-22T07:29:25;96118.91;;;3.34;81.55
56241;BME280;42155;53.096;23.226;2023-12-22T07:31:52;96116.59;;;3.62;81.06
56241;BME280;42155;53.096;23.226;2023-12-22T07:33:53;96123.66;;;3.61;81.14
56241;BME280;42155;53.096;23.226;2023-12-22T07:35:54;96099.81;;;3.48;80.92
56241;BME280;42155;53.096;23.226;2023-12-22T07:37:54;96122.88;;;3.52;81.12
56241;BME280;42155;53.096;23.226;2023-12-22T07:39:54;96131.75;;;3.51;81.31
56241;BME280;42155;53.096;23.226;2023-12-22T07:41:55;96130.09;;;3.50;81.77
56241;BME280;42155;53.096;23.226;2023-12-22T07:43:55;96119.31;;;3.45;81.82
56241;BME280;42155;53.096;23.226;2023-12-22T07:45:56;96121.16;;;3.37;81.18
56241;BME280;42155;53.096;23.226;2023-12-22T07:47:56;96093.25;;;3.21;82.26
56241;BME280;42155;53.096;23.226;2023-12-22T07:49:57;96137.03;;;3.43;81.46
56241;BME280;42155;53.096;23.226;2023-12-22T07:51:57;96127.88;;;3.39;81.66
56241;BME280;42155;53.096;23.226;2023-12-22T07:53:58;96131.50;;;3.38;81.52
56241;BME280;42155;53.096;23.226;2023-12-22T07:55:58;96117.13;;;3.26;81.80
56241;BME280;42155;53.096;23.226;2023-12-22T07:57:58;96084.88;;;2.94;82.42
56241;BME280;42155;53.096;23.226;2023-12-22T07:59:59;96124.00;;;3.27;82.34
56241;BME280;42155;53.096;23.226;2023-12-22T08:01:59;96133.47;;;3.36;82.38
56241;BME280;42155;53.096;23.226;2023-12-22T08:03:59;96135.78;;;3.31;81.92
56241;BME280;42155;53.096;23.226;2023-12-22T08:06:00;96134.84;;;3.24;82.42
56241;BME280;42155;53.096;23.226;2023-12-22T08:08:01;96136.94;;;3.28;82.75
56241;BME280;42155;53.096;23.226;2023-12-22T08:10:02;96136.44;;;3.33;82.72
56241;BME280;42155;53.096;23.226;2023-12-22T08:12:03;96136.75;;;3.38;82.42
56241;BME280;42155;53.096;23.226;2023-12-22T08:14:03;96151.28;;;3.41;82.73
56241;BME280;42155;53.096;23.226;2023-12-22T08:16:03;96146.53;;;3.44;82.39
56241;BME280;42155;53.096;23.226;2023-12-22T08:18:04;96142.78;;;3.39;81.92
56241;BME280;42155;53.096;23.226;2023-12-22T08:20:05;96138.47;;;3.46;82.06
56241;BME280;42155;53.096;23.226;2023-12-22T08:22:06;96140.94;;;3.47;82.45
56241;BME280;42155;53.096;23.226;2023-12-22T08:24:06;96133.13;;;3.39;82.25
56241;BME280;42155;53.096;23.226;2023-12-22T08:26:07;96149.63;;;3.48;81.81
56241;BME280;42155;53.096;23.226;2023-12-22T08:28:07;96149.44;;;3.49;81.93
56241;BME280;42155;53.096;23.226;2023-12-22T08:30:09;96141.59;;;3.41;82.36
56241;BME280;42155;53.096;23.226;2023-12-22T08:32:09;96153.16;;;3.55;82.43
56241;BME280;42155;53.096;23.226;2023-12-22T08:34:10;96146.81;;;3.49;82.24
56241;BME280;42155;53.096;23.226;2023-12-22T08:36:11;96151.34;;;3.55;81.75
56241;BME280;42155;53.096;23.226;2023-12-22T08:38:11;96153.16;;;3.55;82.19
56241;BME280;42155;53.096;23.226;2023-12-22T08:40:12;96145.38;;;3.47;82.02
56241;BME280;42155;53.096;23.226;2023-12-22T08:42:14;96151.25;;;3.49;81.85
56241;BME280;42155;53.096;23.226;2023-12-22T08:44:14;96154.63;;;3.57;81.52
56241;BME280;42155;53.096;23.226;2023-12-22T08:46:15;96145.16;;;3.56;81.56
56241;BME280;42155;53.096;23.226;2023-12-22T08:48:15;96110.88;;;3.35;81.48
56241;BME280;42155;53.096;23.226;2023-12-22T08:50:15;96141.53;;;3.57;81.40
56241;BME280;42155;53.096;23.226;2023-12-22T08:52:16;96146.19;;;3.47;81.12
56241;BME280;42155;53.096;23.226;2023-12-22T08:54:17;96142.13;;;3.68;81.46
56241;BME280;42155;53.096;23.226;2023-12-22T08:56:18;96147.59;;;3.81;80.86
56241;BME280;42155;53.096;23.226;2023-12-22T08:58:18;96149.81;;;3.92;80.48
56241;BME280;42155;53.096;23.226;2023-12-22T09:00:19;96127.91;;;3.85;80.65
56241;BME280;42155;53.096;23.226;2023-12-22T09:02:19;96154.00;;;4.01;80.12
56241;BME280;42155;53.096;23.226;2023-12-22T09:04:20;96161.09;;;4.16;79.77
56241;BME280;42155;53.096;23.226;2023-12-22T09:06:22;96158.78;;;4.21;79.81
56241;BME280;42155;53.096;23.226;2023-12-22T09:08:22;96164.94;;;4.28;79.41
56241;BME280;42155;53.096;23.226;2023-12-22T09:10:23;96171.91;;;4.21;79.67
56241;BME280;42155;53.096;23.226;2023-12-22T09:12:24;96178.41;;;4.25;79.13
56241;BME280;42155;53.096;23.226;2023-12-22T09:14:24;96174.41;;;4.14;79.46
56241;BME280;42155;53.096;23.226;2023-12-22T09:16:25;96175.34;;;4.21;79.57
56241;BME280;42155;53.096;23.226;2023-12-22T09:18:26;96125.75;;;3.89;79.68
56241;BME280;42155;53.096;23.226;2023-12-22T09:20:30;96154.72;;;3.95;79.58
56241;BME280;42155;53.096;23.226;2023-12-22T09:22:30;96167.06;;;4.09;79.96
56241;BME280;42155;53.096;23.226;2023-12-22T09:24:33;96172.66;;;4.06;79.91
56241;BME280;42155;53.096;23.226;2023-12-22T09:26:48;96181.03;;;4.02;79.66
56241;BME280;42155;53.096;23.226;2023-12-22T09:28:49;96117.41;;;3.62;79.19
56241;BME280;42155;53.096;23.226;2023-12-22T09:30:49;96178.66;;;3.92;78.96
56241;BME280;42155;53.096;23.226;2023-12-22T09:32:50;96181.47;;;3.91;78.87
56241;BME280;42155;53.096;23.226;2023-12-22T09:34:50;96162.03;;;3.77;78.55
56241;BME280;42155;53.096;23.226;2023-12-22T09:36:51;96176.09;;;3.84;78.53
56241;BME280;42155;53.096;23.226;2023-12-22T09:38:51;96166.94;;;3.80;78.09
56241;BME280;42155;53.096;23.226;2023-12-22T09:40:51;96171.19;;;3.81;77.37
56241;BME280;42155;53.096;23.226;2023-12-22T09:42:54;96175.28;;;3.83;77.12
56241;BME280;42155;53.096;23.226;2023-12-22T09:44:56;96160.91;;;3.79;77.28
56241;BME280;42155;53.096;23.226;2023-12-22T09:47:03;96159.72;;;3.82;76.21
56241;BME280;42155;53.096;23.226;2023-12-22T09:49:05;96149.19;;;3.90;75.92
56241;BME280;42155;53.096;23.226;2023-12-22T09:51:07;96160.06;;;4.02;75.00
56241;BME280;42155;53.096;23.226;2023-12-22T09:53:07;96153.66;;;4.04;75.08
56241;BME280;42155;53.096;23.226;2023-12-22T09:55:08;96139.53;;;4.05;73.90
56241;BME280;42155;53.096;23.226;2023-12-22T09:57:10;96163.81;;;4.07;73.71
56241;BME280;42155;53.096;23.226;2023-12-22T09:59:12;96162.88;;;4.00;73.78
56241;BME280;42155;53.096;23.226;2023-12-22T10:01:13;96160.91;;;4.02;73.69
56241;BME280;42155;53.096;23.226;2023-12-22T10:03:15;96174.66;;;4.04;73.05
56241;BME280;42155;53.096;23.226;2023-12-22T10:05:16;96164.78;;;4.06;73.19
56241;BME280;42155;53.096;23.226;2023-12-22T10:07:17;96145.72;;;4.13;72.23
56241;BME280;42155;53.096;23.226;2023-12-22T10:09:22;96155.84;;;4.16;71.58
56241;BME280;42155;53.096;23.226;2023-12-22T10:11:24;96150.25;;;4.19;71.07
56241;BME280;42155;53.096;23.226;2023-12-22T10:13:28;96144.09;;;4.12;70.54
56241;BME280;42155;53.096;23.226;2023-12-22T10:15:29;96148.97;;;4.15;70.25
56241;BME280;42155;53.096;23.226;2023-12-22T10:17:30;96149.09;;;4.21;70.17
56241;BME280;42155;53.096;23.226;2023-12-22T10:19:31;96121.69;;;4.01;69.57
56241;BME280;42155;53.096;23.226;2023-12-22T10:21:31;96110.06;;;4.03;68.98
56241;BME280;42155;53.096;23.226;2023-12-22T10:23:32;96145.00;;;4.19;68.56
56241;BME280;42155;53.096;23.226;2023-12-22T10:27:53;96152.09;;;4.33;68.33
56241;BME280;42155;53.096;23.226;2023-12-22T10:29:55;96082.72;;;3.98;67.68
56241;BME280;42155;53.096;23.226;2023-12-22T10:31:56;96141.81;;;4.46;67.40
56241;BME280;42155;53.096;23.226;2023-12-22T10:33:56;96138.44;;;4.52;67.35
56241;BME280;42155;53.096;23.226;2023-12-22T10:35:56;96142.00;;;4.59;67.39
56241;BME280;42155;53.096;23.226;2023-12-22T10:37:58;96132.78;;;4.64;66.95
56241;BME280;42155;53.096;23.226;2023-12-22T10:39:58;96087.13;;;4.35;65.42
56241;BME280;42155;53.096;23.226;2023-12-22T10:41:59;96113.13;;;4.45;66.04
56241;BME280;42155;53.096;23.226;2023-12-22T10:44:00;96129.69;;;4.45;65.87
56241;BME280;42155;53.096;23.226;2023-12-22T10:46:00;96128.88;;;4.45;65.63
56241;BME280;42155;53.096;23.226;2023-12-22T10:48:01;96128.88;;;4.45;65.74
56241;BME280;42155;53.096;23.226;2023-12-22T10:50:04;96104.22;;;4.31;64.96
56241;BME280;42155;53.096;23.226;2023-12-22T10:52:05;96121.25;;;4.35;64.89
56241;BME280;42155;53.096;23.226;2023-12-22T10:54:05;96125.44;;;4.44;65.48